sensor_id;sensor_type;location;lat;lon;timestamp;temperature;humidity
71304;DHT22;59091;47.446;19.148;2022-10-31T00:00:54;14.44;80.87
71304;DHT22;59091;47.446;19.148;2022-10-31T00:03:20;14.33;80.99
71304;DHT22;59091;47.446;19.148;2022-10-31T00:05:47;14.21;81.26
71304;DHT22;59091;47.446;19.148;2022-10-31T00:08:14;14.12;81.63
71304;DHT22;59091;47.446;19.148;2022-10-31T00:10:40;14.16;81.71
71304;DHT22;59091;47.446;19.148;2022-10-31T00:13:07;14.22;81.66
71304;DHT22;59091;47.446;19.148;2022-10-31T00:15:37;14.21;81.55
71304;DHT22;59091;47.446;19.148;2022-10-31T00:18:03;14.18;81.68
71304;DHT22;59091;47.446;19.148;2022-10-31T00:20:29;14.28;81.40
71304;DHT22;59091;47.446;19.148;2022-10-31T00:22:59;14.34;81.06
71304;DHT22;59091;47.446;19.148;2022-10-31T00:25:25;14.34;81.10
71304;DHT22;59091;47.446;19.148;2022-10-31T00:27:51;14.26;81.29
71304;DHT22;59091;47.446;19.148;2022-10-31T00:30:16;14.23;81.35
71304;DHT22;59091;47.446;19.148;2022-10-31T00:32:41;14.21;81.46
71304;DHT22;59091;47.446;19.148;2022-10-31T00:35:07;14.25;81.45
71304;DHT22;59091;47.446;19.148;2022-10-31T00:37:32;14.25;81.42
71304;DHT22;59091;47.446;19.148;2022-10-31T00:39:58;14.29;81.46
71304;DHT22;59091;47.446;19.148;2022-10-31T00:42:23;14.29;81.32
71304;DHT22;59091;47.446;19.148;2022-10-31T00:44:48;14.15;81.64
71304;DHT22;59091;47.446;19.148;2022-10-31T00:47:14;14.19;81.55
71304;DHT22;59091;47.446;19.148;2022-10-31T00:49:39;14.19;81.44
71304;DHT22;59091;47.446;19.148;2022-10-31T00:52:04;14.22;81.47
71304;DHT22;59091;47.446;19.148;2022-10-31T00:54:30;14.25;81.41
71304;DHT22;59091;47.446;19.148;2022-10-31T00:56:56;14.23;81.48
71304;DHT22;59091;47.446;19.148;2022-10-31T00:59:22;14.15;81.88
71304;DHT22;59091;47.446;19.148;2022-10-31T01:01:47;14.13;81.82
71304;DHT22;59091;47.446;19.148;2022-10-31T01:04:12;14.08;81.98
71304;DHT22;59091;47.446;19.148;2022-10-31T01:06:38;14.15;81.89
71304;DHT22;59091;47.446;19.148;2022-10-31T01:09:03;14.08;82.11
71304;DHT22;59091;47.446;19.148;2022-10-31T01:11:28;14.04;82.45
71304;DHT22;59091;47.446;19.148;2022-10-31T01:13:54;14.02;82.39
71304;DHT22;59091;47.446;19.148;2022-10-31T01:16:22;13.92;82.90
71304;DHT22;59091;47.446;19.148;2022-10-31T01:18:48;13.89;82.91
71304;DHT22;59091;47.446;19.148;2022-10-31T01:21:26;13.89;82.83
71304;DHT22;59091;47.446;19.148;2022-10-31T01:23:55;13.86;82.68
71304;DHT22;59091;47.446;19.148;2022-10-31T01:26:23;13.92;82.58
71304;DHT22;59091;47.446;19.148;2022-10-31T01:28:54;13.94;82.33
71304;DHT22;59091;47.446;19.148;2022-10-31T01:31:22;13.97;82.23
71304;DHT22;59091;47.446;19.148;2022-10-31T01:33:48;13.98;82.13
71304;DHT22;59091;47.446;19.148;2022-10-31T01:36:18;13.95;82.14
71304;DHT22;59091;47.446;19.148;2022-10-31T01:38:45;13.97;82.24
71304;DHT22;59091;47.446;19.148;2022-10-31T01:41:13;13.99;82.35
71304;DHT22;59091;47.446;19.148;2022-10-31T01:46:36;14.01;82.41
71304;DHT22;59091;47.446;19.148;2022-10-31T01:49:05;14.04;82.39
71304;DHT22;59091;47.446;19.148;2022-10-31T01:51:36;14.02;82.48
71304;DHT22;59091;47.446;19.148;2022-10-31T01:54:08;14.02;82.41
71304;DHT22;59091;47.446;19.148;2022-10-31T01:56:36;14.05;82.58
71304;DHT22;59091;47.446;19.148;2022-10-31T01:59:05;14.06;82.57
71304;DHT22;59091;47.446;19.148;2022-10-31T02:01:32;14.02;82.64
71304;DHT22;59091;47.446;19.148;2022-10-31T02:03:57;13.99;82.73
71304;DHT22;59091;47.446;19.148;2022-10-31T02:06:50;13.95;82.65
71304;DHT22;59091;47.446;19.148;2022-10-31T02:09:17;14.02;82.75
71304;DHT22;59091;47.446;19.148;2022-10-31T02:11:51;14.01;82.76
71304;DHT22;59091;47.446;19.148;2022-10-31T02:14:17;14.06;82.67
71304;DHT22;59091;47.446;19.148;2022-10-31T02:16:42;14.04;82.64
71304;DHT22;59091;47.446;19.148;2022-10-31T02:19:10;13.99;82.46
71304;DHT22;59091;47.446;19.148;2022-10-31T02:24:41;13.95;82.21
71304;DHT22;59091;47.446;19.148;2022-10-31T02:27:38;13.94;82.41
71304;DHT22;59091;47.446;19.148;2022-10-31T02:30:07;13.94;82.36
71304;DHT22;59091;47.446;19.148;2022-10-31T02:35:37;13.83;82.68
71304;DHT22;59091;47.446;19.148;2022-10-31T02:38:31;13.89;82.42
71304;DHT22;59091;47.446;19.148;2022-10-31T02:44:45;13.91;82.58
71304;DHT22;59091;47.446;19.148;2022-10-31T02:47:17;13.98;82.64
71304;DHT22;59091;47.446;19.148;2022-10-31T02:49:50;13.97;82.58
71304;DHT22;59091;47.446;19.148;2022-10-31T02:52:28;13.95;82.68
71304;DHT22;59091;47.446;19.148;2022-10-31T02:54:55;13.95;82.66
71304;DHT22;59091;47.446;19.148;2022-10-31T02:57:32;13.94;82.62
71304;DHT22;59091;47.446;19.148;2022-10-31T03:00:05;13.98;82.55
71304;DHT22;59091;47.446;19.148;2022-10-31T03:02:40;13.95;82.68
71304;DHT22;59091;47.446;19.148;2022-10-31T03:13:21;13.70;83.82
71304;DHT22;59091;47.446;19.148;2022-10-31T03:15:58;13.72;84.06
71304;DHT22;59091;47.446;19.148;2022-10-31T03:18:39;13.67;84.08
71304;DHT22;59091;47.446;19.148;2022-10-31T03:21:18;13.54;84.70
71304;DHT22;59091;47.446;19.148;2022-10-31T03:23:46;13.57;84.65
71304;DHT22;59091;47.446;19.148;2022-10-31T03:26:14;13.70;84.33
71304;DHT22;59091;47.446;19.148;2022-10-31T03:28:49;13.71;84.10
71304;DHT22;59091;47.446;19.148;2022-10-31T03:31:17;13.72;84.21
71304;DHT22;59091;47.446;19.148;2022-10-31T03:33:45;13.81;84.10
71304;DHT22;59091;47.446;19.148;2022-10-31T03:36:14;13.85;84.04
71304;DHT22;59091;47.446;19.148;2022-10-31T03:38:41;13.83;83.90
71304;DHT22;59091;47.446;19.148;2022-10-31T03:41:11;13.85;83.81
71304;DHT22;59091;47.446;19.148;2022-10-31T03:43:42;13.79;83.52
71304;DHT22;59091;47.446;19.148;2022-10-31T03:46:08;13.74;83.56
71304;DHT22;59091;47.446;19.148;2022-10-31T03:48:34;13.67;83.59
71304;DHT22;59091;47.446;19.148;2022-10-31T03:51:21;13.68;83.41
71304;DHT22;59091;47.446;19.148;2022-10-31T03:53:57;13.64;83.58
71304;DHT22;59091;47.446;19.148;2022-10-31T03:56:34;13.65;83.50
71304;DHT22;59091;47.446;19.148;2022-10-31T03:59:13;13.62;83.24
71304;DHT22;59091;47.446;19.148;2022-10-31T04:01:46;13.65;83.23
71304;DHT22;59091;47.446;19.148;2022-10-31T04:04:13;13.61;83.27
71304;DHT22;59091;47.446;19.148;2022-10-31T04:06:42;13.51;83.49
71304;DHT22;59091;47.446;19.148;2022-10-31T04:09:09;13.60;83.41
71304;DHT22;59091;47.446;19.148;2022-10-31T04:11:40;13.62;83.21
71304;DHT22;59091;47.446;19.148;2022-10-31T04:14:06;13.65;83.18
71304;DHT22;59091;47.446;19.148;2022-10-31T04:16:32;13.68;83.20
71304;DHT22;59091;47.446;19.148;2022-10-31T04:18:58;13.70;83.11
71304;DHT22;59091;47.446;19.148;2022-10-31T04:21:27;13.74;82.93
71304;DHT22;59091;47.446;19.148;2022-10-31T04:23:53;13.71;82.99
71304;DHT22;59091;47.446;19.148;2022-10-31T04:26:19;13.74;82.84
71304;DHT22;59091;47.446;19.148;2022-10-31T04:28:44;13.71;82.83
71304;DHT22;59091;47.446;19.148;2022-10-31T04:31:11;13.71;82.67
71304;DHT22;59091;47.446;19.148;2022-10-31T04:33:36;13.70;82.57
71304;DHT22;59091;47.446;19.148;2022-10-31T04:36:03;13.61;82.56
71304;DHT22;59091;47.446;19.148;2022-10-31T04:38:29;13.70;82.50
71304;DHT22;59091;47.446;19.148;2022-10-31T04:40:55;13.70;82.66
71304;DHT22;59091;47.446;19.148;2022-10-31T04:43:20;13.68;82.71
71304;DHT22;59091;47.446;19.148;2022-10-31T04:45:46;13.71;82.65
71304;DHT22;59091;47.446;19.148;2022-10-31T04:48:11;13.72;82.56
71304;DHT22;59091;47.446;19.148;2022-10-31T04:50:37;13.70;82.63
71304;DHT22;59091;47.446;19.148;2022-10-31T04:53:03;13.70;82.56
71304;DHT22;59091;47.446;19.148;2022-10-31T04:55:28;13.71;82.63
71304;DHT22;59091;47.446;19.148;2022-10-31T04:57:54;13.71;82.64
71304;DHT22;59091;47.446;19.148;2022-10-31T05:00:20;13.70;82.69
71304;DHT22;59091;47.446;19.148;2022-10-31T05:02:51;13.72;82.69
71304;DHT22;59091;47.446;19.148;2022-10-31T05:05:19;13.67;82.89
71304;DHT22;59091;47.446;19.148;2022-10-31T05:07:46;13.67;82.91
71304;DHT22;59091;47.446;19.148;2022-10-31T05:10:14;13.70;82.85
71304;DHT22;59091;47.446;19.148;2022-10-31T05:12:47;13.70;82.74
71304;DHT22;59091;47.446;19.148;2022-10-31T05:15:13;13.71;82.93
71304;DHT22;59091;47.446;19.148;2022-10-31T05:17:38;13.71;82.86
71304;DHT22;59091;47.446;19.148;2022-10-31T05:20:04;13.75;82.73
71304;DHT22;59091;47.446;19.148;2022-10-31T05:22:30;13.77;82.76
71304;DHT22;59091;47.446;19.148;2022-10-31T05:24:55;13.75;82.70
71304;DHT22;59091;47.446;19.148;2022-10-31T05:27:21;13.74;82.88
71304;DHT22;59091;47.446;19.148;2022-10-31T05:29:46;13.77;82.86
71304;DHT22;59091;47.446;19.148;2022-10-31T05:32:12;13.79;82.85
71304;DHT22;59091;47.446;19.148;2022-10-31T05:34:37;13.77;82.84
71304;DHT22;59091;47.446;19.148;2022-10-31T05:37:02;13.77;82.79
71304;DHT22;59091;47.446;19.148;2022-10-31T05:39:28;13.70;83.03
71304;DHT22;59091;47.446;19.148;2022-10-31T05:41:53;13.75;83.05
71304;DHT22;59091;47.446;19.148;2022-10-31T05:44:18;13.77;82.83
71304;DHT22;59091;47.446;19.148;2022-10-31T05:46:46;13.61;82.97
71304;DHT22;59091;47.446;19.148;2022-10-31T05:49:11;13.70;82.95
71304;DHT22;59091;47.446;19.148;2022-10-31T05:51:36;13.74;83.04
71304;DHT22;59091;47.446;19.148;2022-10-31T05:54:02;13.67;83.43
71304;DHT22;59091;47.446;19.148;2022-10-31T05:56:27;13.70;83.51
71304;DHT22;59091;47.446;19.148;2022-10-31T05:58:53;13.71;83.41
71304;DHT22;59091;47.446;19.148;2022-10-31T06:01:18;13.81;83.36
71304;DHT22;59091;47.446;19.148;2022-10-31T06:03:43;13.83;83.19
71304;DHT22;59091;47.446;19.148;2022-10-31T06:06:09;13.86;83.07
71304;DHT22;59091;47.446;19.148;2022-10-31T06:08:35;13.89;82.89
71304;DHT22;59091;47.446;19.148;2022-10-31T06:11:00;13.92;82.90
71304;DHT22;59091;47.446;19.148;2022-10-31T06:13:25;13.98;82.84
71304;DHT22;59091;47.446;19.148;2022-10-31T06:15:51;13.99;82.95
71304;DHT22;59091;47.446;19.148;2022-10-31T06:18:16;13.81;84.01
71304;DHT22;59091;47.446;19.148;2022-10-31T06:20:41;13.89;83.72
71304;DHT22;59091;47.446;19.148;2022-10-31T06:23:07;13.95;83.39
71304;DHT22;59091;47.446;19.148;2022-10-31T06:25:32;13.99;83.02
71304;DHT22;59091;47.446;19.148;2022-10-31T06:27:58;14.09;83.04
71304;DHT22;59091;47.446;19.148;2022-10-31T06:30:24;14.11;82.88
71304;DHT22;59091;47.446;19.148;2022-10-31T06:32:49;14.18;82.81
71304;DHT22;59091;47.446;19.148;2022-10-31T06:35:15;14.18;82.80
71304;DHT22;59091;47.446;19.148;2022-10-31T06:37:40;14.18;82.86
71304;DHT22;59091;47.446;19.148;2022-10-31T06:40:06;14.25;82.79
71304;DHT22;59091;47.446;19.148;2022-10-31T06:42:31;14.26;82.68
71304;DHT22;59091;47.446;19.148;2022-10-31T06:44:57;14.33;82.30
71304;DHT22;59091;47.446;19.148;2022-10-31T06:47:22;14.36;82.23
71304;DHT22;59091;47.446;19.148;2022-10-31T06:49:48;14.42;82.10
71304;DHT22;59091;47.446;19.148;2022-10-31T06:52:13;14.44;82.09
71304;DHT22;59091;47.446;19.148;2022-10-31T06:54:38;14.37;82.09
71304;DHT22;59091;47.446;19.148;2022-10-31T06:57:04;14.40;81.78
71304;DHT22;59091;47.446;19.148;2022-10-31T06:59:29;14.39;81.60
71304;DHT22;59091;47.446;19.148;2022-10-31T07:01:55;14.39;81.49
71304;DHT22;59091;47.446;19.148;2022-10-31T07:04:20;14.42;81.49
71304;DHT22;59091;47.446;19.148;2022-10-31T07:06:46;14.42;81.55
71304;DHT22;59091;47.446;19.148;2022-10-31T07:09:11;14.43;81.60
71304;DHT22;59091;47.446;19.148;2022-10-31T07:11:36;14.46;81.53
71304;DHT22;59091;47.446;19.148;2022-10-31T07:14:02;14.47;81.44
71304;DHT22;59091;47.446;19.148;2022-10-31T07:16:27;14.49;81.35
71304;DHT22;59091;47.446;19.148;2022-10-31T07:18:53;14.52;81.21
71304;DHT22;59091;47.446;19.148;2022-10-31T07:21:18;14.56;81.19
71304;DHT22;59091;47.446;19.148;2022-10-31T07:23:43;14.56;80.96
71304;DHT22;59091;47.446;19.148;2022-10-31T07:26:09;14.57;80.78
71304;DHT22;59091;47.446;19.148;2022-10-31T07:28:35;14.55;81.27
71304;DHT22;59091;47.446;19.148;2022-10-31T07:31:00;14.49;81.80
71304;DHT22;59091;47.446;19.148;2022-10-31T07:33:25;14.63;81.50
71304;DHT22;59091;47.446;19.148;2022-10-31T07:35:51;14.80;83.03
71304;DHT22;59091;47.446;19.148;2022-10-31T07:38:17;14.90;82.52
71304;DHT22;59091;47.446;19.148;2022-10-31T07:40:42;14.90;81.16
71304;DHT22;59091;47.446;19.148;2022-10-31T07:43:09;14.95;80.71
71304;DHT22;59091;47.446;19.148;2022-10-31T07:45:35;14.97;80.48
71304;DHT22;59091;47.446;19.148;2022-10-31T07:48:00;14.98;80.78
71304;DHT22;59091;47.446;19.148;2022-10-31T07:50:29;14.98;80.13
71304;DHT22;59091;47.446;19.148;2022-10-31T07:53:05;14.95;79.82
71304;DHT22;59091;47.446;19.148;2022-10-31T07:55:31;14.98;79.92
71304;DHT22;59091;47.446;19.148;2022-10-31T07:58:01;15.00;79.73
71304;DHT22;59091;47.446;19.148;2022-10-31T08:00:28;14.98;79.84
71304;DHT22;59091;47.446;19.148;2022-10-31T08:03:04;14.73;79.62
71304;DHT22;59091;47.446;19.148;2022-10-31T08:05:31;14.74;79.85
71304;DHT22;59091;47.446;19.148;2022-10-31T08:07:57;14.81;80.07
71304;DHT22;59091;47.446;19.148;2022-10-31T08:10:23;14.70;80.32
71304;DHT22;59091;47.446;19.148;2022-10-31T08:12:59;14.79;80.12
71304;DHT22;59091;47.446;19.148;2022-10-31T08:15:25;14.81;80.09
71304;DHT22;59091;47.446;19.148;2022-10-31T08:17:51;14.74;80.15
71304;DHT22;59091;47.446;19.148;2022-10-31T08:20:16;14.77;79.85
71304;DHT22;59091;47.446;19.148;2022-10-31T08:22:42;14.83;79.58
71304;DHT22;59091;47.446;19.148;2022-10-31T08:25:08;14.87;79.42
71304;DHT22;59091;47.446;19.148;2022-10-31T08:27:33;14.87;79.37
71304;DHT22;59091;47.446;19.148;2022-10-31T08:29:59;14.88;79.37
71304;DHT22;59091;47.446;19.148;2022-10-31T08:32:24;14.83;79.37
71304;DHT22;59091;47.446;19.148;2022-10-31T08:34:50;14.79;79.46
71304;DHT22;59091;47.446;19.148;2022-10-31T08:37:15;14.71;79.68
71304;DHT22;59091;47.446;19.148;2022-10-31T08:39:46;15.07;84.68
71304;DHT22;59091;47.446;19.148;2022-10-31T08:42:11;15.00;80.26
71304;DHT22;59091;47.446;19.148;2022-10-31T08:44:36;14.97;80.58
71304;DHT22;59091;47.446;19.148;2022-10-31T08:47:02;14.94;79.40
71304;DHT22;59091;47.446;19.148;2022-10-31T08:49:27;14.94;78.87
71304;DHT22;59091;47.446;19.148;2022-10-31T08:51:52;14.97;78.88
71304;DHT22;59091;47.446;19.148;2022-10-31T08:54:18;14.98;79.35
71304;DHT22;59091;47.446;19.148;2022-10-31T08:56:43;15.27;82.45
71304;DHT22;59091;47.446;19.148;2022-10-31T08:59:08;15.25;78.84
71304;DHT22;59091;47.446;19.148;2022-10-31T09:01:34;15.30;78.29
71304;DHT22;59091;47.446;19.148;2022-10-31T09:03:59;15.24;79.03
71304;DHT22;59091;47.446;19.148;2022-10-31T09:06:25;15.30;77.99
71304;DHT22;59091;47.446;19.148;2022-10-31T09:08:50;15.51;83.08
71304;DHT22;59091;47.446;19.148;2022-10-31T09:11:16;15.55;81.42
71304;DHT22;59091;47.446;19.148;2022-10-31T09:13:41;15.52;78.07
71304;DHT22;59091;47.446;19.148;2022-10-31T09:16:06;15.45;78.70
71304;DHT22;59091;47.446;19.148;2022-10-31T09:18:32;15.38;78.19
71304;DHT22;59091;47.446;19.148;2022-10-31T09:20:58;15.27;77.20
71304;DHT22;59091;47.446;19.148;2022-10-31T09:23:24;15.31;77.40
71304;DHT22;59091;47.446;19.148;2022-10-31T09:25:51;15.18;77.73
71304;DHT22;59091;47.446;19.148;2022-10-31T09:28:22;15.11;77.65
71304;DHT22;59091;47.446;19.148;2022-10-31T09:30:49;15.14;77.84
71304;DHT22;59091;47.446;19.148;2022-10-31T09:33:15;15.18;77.75
71304;DHT22;59091;47.446;19.148;2022-10-31T09:35:41;15.15;77.53
71304;DHT22;59091;47.446;19.148;2022-10-31T09:38:14;15.14;77.43
71304;DHT22;59091;47.446;19.148;2022-10-31T09:40:43;15.25;77.37
71304;DHT22;59091;47.446;19.148;2022-10-31T09:46:16;15.38;77.30
71304;DHT22;59091;47.446;19.148;2022-10-31T09:49:02;15.41;76.84
71304;DHT22;59091;47.446;19.148;2022-10-31T09:51:37;15.58;79.48
71304;DHT22;59091;47.446;19.148;2022-10-31T09:54:19;15.59;76.89
71304;DHT22;59091;47.446;19.148;2022-10-31T09:56:45;15.78;77.35
71304;DHT22;59091;47.446;19.148;2022-10-31T09:59:25;15.69;76.46
71304;DHT22;59091;47.446;19.148;2022-10-31T10:02:01;15.51;75.86
71304;DHT22;59091;47.446;19.148;2022-10-31T10:04:50;15.49;76.65
71304;DHT22;59091;47.446;19.148;2022-10-31T10:10:16;15.58;76.30
71304;DHT22;59091;47.446;19.148;2022-10-31T10:13:03;15.63;77.98
71304;DHT22;59091;47.446;19.148;2022-10-31T10:15:55;15.62;76.42
71304;DHT22;59091;47.446;19.148;2022-10-31T10:18:31;15.65;76.54
71304;DHT22;59091;47.446;19.148;2022-10-31T10:24:25;15.55;76.79
71304;DHT22;59091;47.446;19.148;2022-10-31T10:26:46;15.52;76.73
71304;DHT22;59091;47.446;19.148;2022-10-31T10:29:37;15.28;77.13
71304;DHT22;59091;47.446;19.148;2022-10-31T10:32:17;15.36;77.12
71304;DHT22;59091;47.446;19.148;2022-10-31T10:34:50;15.39;77.31
71304;DHT22;59091;47.446;19.148;2022-10-31T10:37:43;15.27;76.76
71304;DHT22;59091;47.446;19.148;2022-10-31T10:40:16;15.18;77.46
71304;DHT22;59091;47.446;19.148;2022-10-31T10:42:56;15.18;77.80
71304;DHT22;59091;47.446;19.148;2022-10-31T10:45:43;15.28;77.85
71304;DHT22;59091;47.446;19.148;2022-10-31T10:49:02;14.94;78.31
71304;DHT22;59091;47.446;19.148;2022-10-31T10:54:17;15.25;78.35
71304;DHT22;59091;47.446;19.148;2022-10-31T10:59:32;15.38;76.76
71304;DHT22;59091;47.446;19.148;2022-10-31T11:01:58;15.43;76.48
71304;DHT22;59091;47.446;19.148;2022-10-31T11:04:29;15.27;77.02
71304;DHT22;59091;47.446;19.148;2022-10-31T11:07:08;15.25;76.89
71304;DHT22;59091;47.446;19.148;2022-10-31T11:09:35;15.25;77.34
71304;DHT22;59091;47.446;19.148;2022-10-31T11:12:08;15.10;76.78
71304;DHT22;59091;47.446;19.148;2022-10-31T11:14:43;15.02;77.67
71304;DHT22;59091;47.446;19.148;2022-10-31T11:17:16;15.18;77.43
71304;DHT22;59091;47.446;19.148;2022-10-31T11:19:42;15.05;78.42
71304;DHT22;59091;47.446;19.148;2022-10-31T11:22:14;15.27;77.67
71304;DHT22;59091;47.446;19.148;2022-10-31T11:24:42;15.36;76.91
71304;DHT22;59091;47.446;19.148;2022-10-31T11:27:20;15.45;76.48
71304;DHT22;59091;47.446;19.148;2022-10-31T11:29:46;15.46;76.17
71304;DHT22;59091;47.446;19.148;2022-10-31T11:32:23;15.42;76.14
71304;DHT22;59091;47.446;19.148;2022-10-31T11:35:00;15.42;76.23
71304;DHT22;59091;47.446;19.148;2022-10-31T11:37:31;15.48;75.90
71304;DHT22;59091;47.446;19.148;2022-10-31T11:40:02;15.38;75.80
71304;DHT22;59091;47.446;19.148;2022-10-31T11:42:35;15.43;76.03
71304;DHT22;59091;47.446;19.148;2022-10-31T11:45:06;15.38;76.35
71304;DHT22;59091;47.446;19.148;2022-10-31T11:47:33;15.46;76.08
71304;DHT22;59091;47.446;19.148;2022-10-31T11:50:02;15.48;75.98
71304;DHT22;59091;47.446;19.148;2022-10-31T11:52:33;15.53;75.80
71304;DHT22;59091;47.446;19.148;2022-10-31T11:57:48;15.31;76.46
71304;DHT22;59091;47.446;19.148;2022-10-31T12:00:28;15.15;76.89
71304;DHT22;59091;47.446;19.148;2022-10-31T12:05:42;15.31;76.50
71304;DHT22;59091;47.446;19.148;2022-10-31T12:08:11;15.15;76.68
71304;DHT22;59091;47.446;19.148;2022-10-31T12:10:58;15.24;76.28
71304;DHT22;59091;47.446;19.148;2022-10-31T12:13:45;15.32;75.87
71304;DHT22;59091;47.446;19.148;2022-10-31T12:16:21;15.39;75.84
71304;DHT22;59091;47.446;19.148;2022-10-31T12:19:10;15.22;75.76
71304;DHT22;59091;47.446;19.148;2022-10-31T12:30:19;15.36;76.17
71304;DHT22;59091;47.446;19.148;2022-10-31T12:35:43;15.31;76.57
71304;DHT22;59091;47.446;19.148;2022-10-31T12:43:57;16.13;74.99
71304;DHT22;59091;47.446;19.148;2022-10-31T12:46:45;16.09;74.66
71304;DHT22;59091;47.446;19.148;2022-10-31T12:49:38;16.06;74.84
71304;DHT22;59091;47.446;19.148;2022-10-31T12:55:13;15.76;74.09
71304;DHT22;59091;47.446;19.148;2022-10-31T12:57:47;15.70;74.56
71304;DHT22;59091;47.446;19.148;2022-10-31T13:00:18;15.67;74.68
71304;DHT22;59091;47.446;19.148;2022-10-31T13:05:31;15.69;75.14
71304;DHT22;59091;47.446;19.148;2022-10-31T13:08:03;15.65;76.20
71304;DHT22;59091;47.446;19.148;2022-10-31T13:10:39;15.65;75.31
71304;DHT22;59091;47.446;19.148;2022-10-31T13:13:20;15.56;75.03
71304;DHT22;59091;47.446;19.148;2022-10-31T13:15:50;15.61;75.11
71304;DHT22;59091;47.446;19.148;2022-10-31T13:20:55;15.42;75.97
71304;DHT22;59091;47.446;19.148;2022-10-31T13:23:31;15.41;75.90
71304;DHT22;59091;47.446;19.148;2022-10-31T13:26:01;15.34;76.23
71304;DHT22;59091;47.446;19.148;2022-10-31T13:30:53;15.61;80.88
71304;DHT22;59091;47.446;19.148;2022-10-31T13:33:54;15.52;77.12
71304;DHT22;59091;47.446;19.148;2022-10-31T13:42:28;15.10;76.83
71304;DHT22;59091;47.446;19.148;2022-10-31T13:44:55;15.18;76.95
71304;DHT22;59091;47.446;19.148;2022-10-31T13:47:31;15.21;77.68
71304;DHT22;59091;47.446;19.148;2022-10-31T13:50:20;15.10;77.18
71304;DHT22;59091;47.446;19.148;2022-10-31T13:52:46;15.12;77.17
71304;DHT22;59091;47.446;19.148;2022-10-31T13:55:42;14.94;77.40
71304;DHT22;59091;47.446;19.148;2022-10-31T13:58:28;14.90;77.96
71304;DHT22;59091;47.446;19.148;2022-10-31T14:03:37;15.10;80.31
71304;DHT22;59091;47.446;19.148;2022-10-31T14:06:03;15.08;77.92
71304;DHT22;59091;47.446;19.148;2022-10-31T14:08:33;15.08;77.37
71304;DHT22;59091;47.446;19.148;2022-10-31T14:10:59;15.05;77.56
71304;DHT22;59091;47.446;19.148;2022-10-31T14:13:31;15.04;77.63
71304;DHT22;59091;47.446;19.148;2022-10-31T14:16:03;15.07;77.59
71304;DHT22;59091;47.446;19.148;2022-10-31T14:18:36;14.74;79.06
71304;DHT22;59091;47.446;19.148;2022-10-31T14:23:51;14.94;78.80
71304;DHT22;59091;47.446;19.148;2022-10-31T14:28:54;14.84;78.91
71304;DHT22;59091;47.446;19.148;2022-10-31T14:31:37;14.67;79.19
71304;DHT22;59091;47.446;19.148;2022-10-31T14:34:14;14.49;79.90
71304;DHT22;59091;47.446;19.148;2022-10-31T14:36:54;14.59;79.62
71304;DHT22;59091;47.446;19.148;2022-10-31T14:42:20;14.62;79.36
71304;DHT22;59091;47.446;19.148;2022-10-31T14:45:00;14.67;79.14
71304;DHT22;59091;47.446;19.148;2022-10-31T14:53:01;14.69;79.20
71304;DHT22;59091;47.446;19.148;2022-10-31T14:55:27;14.74;78.95
71304;DHT22;59091;47.446;19.148;2022-10-31T14:57:58;14.67;78.88
71304;DHT22;59091;47.446;19.148;2022-10-31T15:00:24;14.73;78.75
71304;DHT22;59091;47.446;19.148;2022-10-31T15:03:14;14.71;78.51
71304;DHT22;59091;47.446;19.148;2022-10-31T15:05:45;14.80;78.53
71304;DHT22;59091;47.446;19.148;2022-10-31T15:08:37;14.73;78.49
71304;DHT22;59091;47.446;19.148;2022-10-31T15:11:09;14.77;78.61
71304;DHT22;59091;47.446;19.148;2022-10-31T15:13:41;14.76;78.56
71304;DHT22;59091;47.446;19.148;2022-10-31T15:16:09;14.74;78.82
71304;DHT22;59091;47.446;19.148;2022-10-31T15:18:38;14.70;79.00
71304;DHT22;59091;47.446;19.148;2022-10-31T15:21:09;14.47;79.33
71304;DHT22;59091;47.446;19.148;2022-10-31T15:23:35;14.60;79.12
71304;DHT22;59091;47.446;19.148;2022-10-31T15:26:03;14.66;78.94
71304;DHT22;59091;47.446;19.148;2022-10-31T15:28:29;14.63;79.14
71304;DHT22;59091;47.446;19.148;2022-10-31T15:30:57;14.57;79.28
71304;DHT22;59091;47.446;19.148;2022-10-31T15:33:27;14.59;79.12
71304;DHT22;59091;47.446;19.148;2022-10-31T15:35:59;14.59;79.04
71304;DHT22;59091;47.446;19.148;2022-10-31T15:38:25;14.44;79.64
71304;DHT22;59091;47.446;19.148;2022-10-31T15:40:53;14.44;79.61
71304;DHT22;59091;47.446;19.148;2022-10-31T15:43:19;14.32;80.27
71304;DHT22;59091;47.446;19.148;2022-10-31T15:45:45;14.33;81.16
71304;DHT22;59091;47.446;19.148;2022-10-31T15:48:23;14.36;80.41
71304;DHT22;59091;47.446;19.148;2022-10-31T15:50:53;14.39;80.36
71304;DHT22;59091;47.446;19.148;2022-10-31T15:53:30;14.28;80.73
71304;DHT22;59091;47.446;19.148;2022-10-31T15:56:02;14.19;80.95
71304;DHT22;59091;47.446;19.148;2022-10-31T15:58:28;14.21;80.94
71304;DHT22;59091;47.446;19.148;2022-10-31T16:01:00;14.15;81.00
71304;DHT22;59091;47.446;19.148;2022-10-31T16:03:28;14.06;81.26
71304;DHT22;59091;47.446;19.148;2022-10-31T16:06:02;14.12;81.03
71304;DHT22;59091;47.446;19.148;2022-10-31T16:13:34;14.08;81.10
71304;DHT22;59091;47.446;19.148;2022-10-31T16:16:03;13.98;81.25
71304;DHT22;59091;47.446;19.148;2022-10-31T16:18:30;13.94;81.28
71304;DHT22;59091;47.446;19.148;2022-10-31T16:21:00;13.91;81.42
71304;DHT22;59091;47.446;19.148;2022-10-31T16:23:26;13.92;81.81
71304;DHT22;59091;47.446;19.148;2022-10-31T16:25:52;13.98;81.34
71304;DHT22;59091;47.446;19.148;2022-10-31T16:28:26;13.91;81.56
71304;DHT22;59091;47.446;19.148;2022-10-31T16:30:53;13.75;82.02
71304;DHT22;59091;47.446;19.148;2022-10-31T16:33:30;13.72;81.99
71304;DHT22;59091;47.446;19.148;2022-10-31T16:35:59;13.81;82.00
71304;DHT22;59091;47.446;19.148;2022-10-31T16:38:24;13.85;81.88
71304;DHT22;59091;47.446;19.148;2022-10-31T16:40:51;13.85;81.86
71304;DHT22;59091;47.446;19.148;2022-10-31T16:43:18;13.75;82.14
71304;DHT22;59091;47.446;19.148;2022-10-31T16:45:45;13.70;82.36
71304;DHT22;59091;47.446;19.148;2022-10-31T16:48:21;13.53;82.99
71304;DHT22;59091;47.446;19.148;2022-10-31T16:50:49;13.60;83.09
71304;DHT22;59091;47.446;19.148;2022-10-31T16:53:16;13.72;82.54
71304;DHT22;59091;47.446;19.148;2022-10-31T16:55:45;13.71;82.80
71304;DHT22;59091;47.446;19.148;2022-10-31T16:58:22;13.65;82.76
71304;DHT22;59091;47.446;19.148;2022-10-31T17:00:49;13.55;82.88
71304;DHT22;59091;47.446;19.148;2022-10-31T17:03:15;13.71;82.46
71304;DHT22;59091;47.446;19.148;2022-10-31T17:05:40;13.70;82.62
71304;DHT22;59091;47.446;19.148;2022-10-31T17:08:06;13.72;82.54